Time;durP1;ratioP1;P1;durP2;ratioP2;P2;SDS_P1;SDS_P2;PMS_P1;PMS_P2;Temp;Humidity;BMP_temperature;BMP_pressure;BME280_temperature;BME280_humidity;BME280_pressure;Samples;Min_cycle;Max_cycle;Signal;HPM_P1;HPM_P2
2021/05/20 00:01:52;;;;;;;12.60;11.33;;;;;;;;;;5048622;28;20464;-64
2021/05/20 00:04:19;;;;;;;13.10;11.97;;;;;;;;;;5071297;28;20499;-64
2021/05/20 00:06:45;;;;;;;12.83;11.70;;;;;;;;;;5053944;28;20469;-64
2021/05/20 00:09:12;;;;;;;13.47;12.47;;;;;;;;;;5040066;28;20457;-64
2021/05/20 00:11:39;;;;;;;12.50;11.50;;;;;;;;;;5043920;28;20477;-64
2021/05/20 00:14:06;;;;;;;12.47;11.57;;;;;;;;;;5054823;28;20460;-63
2021/05/20 00:16:32;;;;;;;13.23;12.17;;;;;;;;;;5033302;28;21002;-64
2021/05/20 00:19:00;;;;;;;12.23;11.23;;;;;;;;;;5034709;28;20445;-64
2021/05/20 00:21:26;;;;;;;12.70;11.53;;;;;;;;;;5039705;28;20472;-64
2021/05/20 00:23:53;;;;;;;11.70;10.70;;;;;;;;;;5042128;28;20506;-64
2021/05/20 00:26:19;;;;;;;12.13;11.20;;;;;;;;;;5044920;28;20469;-63
2021/05/20 00:28:46;;;;;;;11.13;10.33;;;;;;;;;;5033845;28;20483;-63
2021/05/20 00:31:13;;;;;;;11.77;10.83;;;;;;;;;;5035254;28;20448;-63
2021/05/20 00:33:39;;;;;;;11.43;10.43;;;;;;;;;;5036483;28;20562;-64
2021/05/20 00:36:07;;;;;;;11.73;10.83;;;;;;;;;;5036811;28;21005;-63
2021/05/20 00:38:34;;;;;;;11.30;10.30;;;;;;;;;;5034187;28;20460;-63
2021/05/20 00:41:01;;;;;;;11.20;10.30;;;;;;;;;;5033328;28;20519;-64
2021/05/20 00:43:27;;;;;;;11.33;10.00;;;;;;;;;;5033335;28;20571;-64
2021/05/20 00:45:54;;;;;;;10.83;9.83;;;;;;;;;;5039283;28;21053;-63
2021/05/20 00:48:21;;;;;;;9.97;9.23;;;;;;;;;;5036012;28;20498;-63
2021/05/20 00:50:48;;;;;;;9.77;8.97;;;;;;;;;;5032987;28;20467;-63
2021/05/20 00:53:16;;;;;;;9.93;9.07;;;;;;;;;;5050070;28;21831;-63
2021/05/20 00:55:43;;;;;;;9.17;8.57;;;;;;;;;;5032426;28;20472;-64
2021/05/20 00:58:11;;;;;;;9.47;8.77;;;;;;;;;;5041213;28;20821;-63
2021/05/20 01:00:38;;;;;;;9.03;8.30;;;;;;;;;;5043371;28;20834;-63
2021/05/20 01:03:05;;;;;;;8.70;8.20;;;;;;;;;;5037305;28;20491;-63
2021/05/20 01:05:32;;;;;;;9.77;9.03;;;;;;;;;;5041260;28;20452;-63
2021/05/20 01:07:58;;;;;;;8.80;8.20;;;;;;;;;;5044898;28;20469;-63
2021/05/20 01:10:26;;;;;;;8.30;7.73;;;;;;;;;;5041263;28;20872;-63
2021/05/20 01:12:53;;;;;;;9.00;8.40;;;;;;;;;;5050265;28;20464;-62
2021/05/20 01:15:20;;;;;;;8.77;8.17;;;;;;;;;;5042138;28;20460;-63
2021/05/20 01:17:48;;;;;;;8.93;8.13;;;;;;;;;;5034702;28;20457;-63
2021/05/20 01:20:17;;;;;;;8.63;8.03;;;;;;;;;;5038316;28;20460;-63
2021/05/20 01:22:44;;;;;;;8.40;7.80;;;;;;;;;;5036938;28;20475;-63
2021/05/20 01:25:11;;;;;;;9.17;8.47;;;;;;;;;;5035791;28;20485;-63
2021/05/20 01:27:39;;;;;;;8.73;8.13;;;;;;;;;;5034537;28;20473;-63
2021/05/20 01:30:06;;;;;;;8.10;7.50;;;;;;;;;;5040094;28;20452;-63
2021/05/20 01:32:32;;;;;;;8.70;8.10;;;;;;;;;;5030392;28;20489;-63
2021/05/20 01:34:59;;;;;;;8.73;8.13;;;;;;;;;;5031373;28;20472;-63
2021/05/20 01:37:26;;;;;;;7.17;6.67;;;;;;;;;;5040049;28;20460;-64
2021/05/20 01:39:53;;;;;;;8.53;7.93;;;;;;;;;;5039590;28;20465;-64
2021/05/20 01:42:20;;;;;;;8.00;7.50;;;;;;;;;;5036342;28;20472;-64
2021/05/20 01:44:46;;;;;;;8.47;7.67;;;;;;;;;;5033291;28;21021;-64
2021/05/20 01:47:13;;;;;;;7.03;6.53;;;;;;;;;;5037119;28;20474;-63
2021/05/20 01:49:40;;;;;;;7.73;7.23;;;;;;;;;;5048158;28;20821;-64
2021/05/20 01:52:06;;;;;;;7.40;6.93;;;;;;;;;;5039614;28;20464;-63
2021/05/20 01:54:34;;;;;;;7.60;7.00;;;;;;;;;;5032109;28;20476;-63
2021/05/20 01:57:00;;;;;;;7.40;6.80;;;;;;;;;;5031815;28;20453;-63
2021/05/20 01:59:27;;;;;;;6.80;6.40;;;;;;;;;;5032933;28;20460;-63
2021/05/20 02:01:53;;;;;;;7.50;6.93;;;;;;;;;;5033278;28;20522;-64
2021/05/20 02:04:20;;;;;;;7.40;6.90;;;;;;;;;;5026271;28;20492;-63
2021/05/20 02:06:47;;;;;;;7.77;7.20;;;;;;;;;;5039870;28;20468;-63
2021/05/20 02:09:13;;;;;;;7.60;7.07;;;;;;;;;;5032442;28;20463;-64
2021/05/20 02:11:41;;;;;;;7.30;6.80;;;;;;;;;;5038888;28;20958;-63
2021/05/20 02:14:07;;;;;;;6.70;6.20;;;;;;;;;;5031222;28;20488;-63
2021/05/20 02:16:34;;;;;;;7.30;6.80;;;;;;;;;;5043938;28;20451;-63
2021/05/20 02:19:01;;;;;;;6.83;6.30;;;;;;;;;;5035964;28;20465;-64
2021/05/20 02:21:27;;;;;;;6.90;6.50;;;;;;;;;;5036465;28;20444;-63
2021/05/20 02:23:54;;;;;;;7.53;7.03;;;;;;;;;;5044227;28;20497;-63
2021/05/20 02:26:21;;;;;;;6.73;6.20;;;;;;;;;;5040987;28;20452;-63
2021/05/20 02:28:48;;;;;;;7.97;7.37;;;;;;;;;;5032632;28;20970;-64
2021/05/20 02:31:15;;;;;;;7.30;6.70;;;;;;;;;;5039488;28;20456;-63
2021/05/20 02:33:41;;;;;;;8.10;7.60;;;;;;;;;;5031501;28;20484;-63
2021/05/20 02:36:08;;;;;;;7.83;7.33;;;;;;;;;;5032397;28;20506;-63
2021/05/20 02:38:34;;;;;;;7.70;7.10;;;;;;;;;;5025075;28;20465;-64
2021/05/20 02:41:01;;;;;;;7.77;7.13;;;;;;;;;;5039901;28;21021;-64
2021/05/20 02:43:28;;;;;;;7.63;7.10;;;;;;;;;;5031256;28;20476;-63
2021/05/20 02:45:55;;;;;;;7.60;7.10;;;;;;;;;;5035476;28;20867;-63
2021/05/20 02:48:22;;;;;;;8.13;7.53;;;;;;;;;;5051652;28;20528;-63
2021/05/20 02:50:48;;;;;;;7.97;7.37;;;;;;;;;;5034113;28;20957;-63
2021/05/20 02:53:15;;;;;;;7.90;7.10;;;;;;;;;;5037527;28;20518;-63
2021/05/20 02:55:42;;;;;;;7.93;7.30;;;;;;;;;;5031788;28;20464;-63
2021/05/20 02:58:08;;;;;;;7.63;7.13;;;;;;;;;;5031966;28;20479;-63
2021/05/20 03:00:37;;;;;;;7.47;6.90;;;;;;;;;;5050924;28;20497;-63
2021/05/20 03:03:05;;;;;;;7.37;6.87;;;;;;;;;;5031596;28;21011;-64
2021/05/20 03:05:32;;;;;;;7.30;6.80;;;;;;;;;;5047845;28;20480;-63
2021/05/20 03:07:59;;;;;;;8.50;7.83;;;;;;;;;;5032143;28;20855;-63
2021/05/20 03:10:26;;;;;;;7.73;7.13;;;;;;;;;;5048536;28;20913;-63
2021/05/20 03:12:52;;;;;;;7.37;6.87;;;;;;;;;;5037655;28;20509;-63
2021/05/20 03:15:19;;;;;;;7.87;7.27;;;;;;;;;;5035233;28;20465;-63
2021/05/20 03:17:45;;;;;;;8.03;7.43;;;;;;;;;;5033790;28;20993;-63
2021/05/20 03:20:14;;;;;;;7.37;6.87;;;;;;;;;;5035509;28;20473;-63
2021/05/20 03:22:41;;;;;;;8.00;7.47;;;;;;;;;;5031876;28;20496;-63
2021/05/20 03:25:08;;;;;;;7.57;7.07;;;;;;;;;;5033431;28;20987;-63
2021/05/20 03:27:34;;;;;;;9.80;7.10;;;;;;;;;;5041956;28;20467;-63
2021/05/20 03:30:01;;;;;;;8.33;7.73;;;;;;;;;;5026751;28;20527;-63
2021/05/20 03:32:28;;;;;;;7.70;7.10;;;;;;;;;;5027344;28;20485;-63
2021/05/20 03:34:54;;;;;;;9.00;8.30;;;;;;;;;;5031795;28;21077;-63
2021/05/20 03:37:22;;;;;;;9.50;8.80;;;;;;;;;;5030639;28;20464;-63
2021/05/20 03:39:48;;;;;;;9.20;8.40;;;;;;;;;;5031654;28;20460;-63
2021/05/20 03:42:15;;;;;;;9.90;9.23;;;;;;;;;;5045847;28;20488;-64
2021/05/20 03:44:41;;;;;;;8.70;8.10;;;;;;;;;;5036540;28;20484;-61
2021/05/20 03:47:08;;;;;;;10.13;9.43;;;;;;;;;;5048704;28;20846;-64
2021/05/20 03:49:35;;;;;;;10.80;10.00;;;;;;;;;;5041574;28;20455;-64
2021/05/20 03:52:01;;;;;;;11.97;10.97;;;;;;;;;;5039582;28;20492;-64
2021/05/20 03:54:29;;;;;;;11.10;10.00;;;;;;;;;;5038713;28;20470;-64
2021/05/20 03:56:55;;;;;;;12.43;11.53;;;;;;;;;;5025770;28;20472;-64
2021/05/20 03:59:22;;;;;;;12.10;10.93;;;;;;;;;;5035658;28;20469;-64
2021/05/20 04:01:48;;;;;;;13.20;12.23;;;;;;;;;;5039794;28;20476;-63
2021/05/20 04:04:15;;;;;;;13.20;12.20;;;;;;;;;;5028674;28;20488;-63
2021/05/20 04:06:42;;;;;;;13.47;12.50;;;;;;;;;;5031502;28;20461;-64
2021/05/20 04:09:08;;;;;;;15.73;14.43;;;;;;;;;;5043856;28;20469;-64
2021/05/20 04:11:36;;;;;;;14.70;13.70;;;;;;;;;;5033967;28;20944;-63
2021/05/20 04:14:03;;;;;;;15.77;14.67;;;;;;;;;;5047618;28;20484;-64
2021/05/20 04:16:29;;;;;;;15.97;14.97;;;;;;;;;;5042418;28;20464;-63
2021/05/20 04:18:56;;;;;;;15.53;14.50;;;;;;;;;;5034389;28;20452;-63
2021/05/20 04:21:22;;;;;;;15.10;14.10;;;;;;;;;;5039580;28;20454;-63
2021/05/20 04:23:49;;;;;;;14.53;13.60;;;;;;;;;;5040208;28;20496;-63
2021/05/20 04:26:19;;;;;;;14.27;13.37;;;;;;;;;;5043364;28;20464;-63
2021/05/20 04:28:47;;;;;;;15.57;14.47;;;;;;;;;;5034369;28;20472;-63
2021/05/20 04:31:13;;;;;;;14.70;13.60;;;;;;;;;;5053267;28;20455;-64
2021/05/20 04:33:41;;;;;;;14.53;13.63;;;;;;;;;;5050573;28;20467;-63
2021/05/20 04:36:07;;;;;;;14.97;13.80;;;;;;;;;;5033926;28;20449;-63
2021/05/20 04:38:34;;;;;;;15.17;14.07;;;;;;;;;;5032478;28;20467;-62
2021/05/20 04:41:00;;;;;;;13.70;12.80;;;;;;;;;;5034028;28;20511;-64
2021/05/20 04:43:27;;;;;;;14.77;13.77;;;;;;;;;;5046386;28;21001;-63
2021/05/20 04:45:54;;;;;;;13.37;12.47;;;;;;;;;;5042473;28;20459;-63
2021/05/20 04:48:21;;;;;;;14.90;13.90;;;;;;;;;;5035771;28;20461;-64
2021/05/20 04:50:48;;;;;;;13.80;12.83;;;;;;;;;;5033082;28;20465;-63
2021/05/20 04:53:14;;;;;;;13.40;12.40;;;;;;;;;;5033365;28;20472;-64
2021/05/20 04:55:41;;;;;;;15.43;13.97;;;;;;;;;;5033203;28;20469;-66
2021/05/20 04:58:07;;;;;;;6.10;4.47;;;;;;;;;;5034667;28;20489;-64
2021/05/20 05:00:34;;;;;;;5.23;4.50;;;;;;;;;;5043044;28;20541;-62
2021/05/20 05:03:02;;;;;;;5.77;5.37;;;;;;;;;;5034065;28;20480;-62
2021/05/20 05:05:28;;;;;;;7.03;6.63;;;;;;;;;;5031739;28;20499;-63
2021/05/20 05:07:55;;;;;;;7.23;6.60;;;;;;;;;;5039231;28;20814;-61
2021/05/20 05:10:21;;;;;;;7.97;7.47;;;;;;;;;;5034268;28;20456;-62
2021/05/20 05:12:48;;;;;;;8.20;7.60;;;;;;;;;;5033734;28;20468;-62
2021/05/20 05:15:15;;;;;;;9.53;8.83;;;;;;;;;;5033704;28;20449;-62
2021/05/20 05:17:41;;;;;;;7.23;6.83;;;;;;;;;;5033146;28;20464;-62
2021/05/20 05:20:09;;;;;;;6.90;6.30;;;;;;;;;;5033934;28;20459;-62
2021/05/20 05:22:36;;;;;;;5.63;5.13;;;;;;;;;;5033515;28;20499;-62
2021/05/20 05:25:03;;;;;;;6.10;5.70;;;;;;;;;;5062572;23;20966;-67
2021/05/20 05:27:30;;;;;;;6.13;5.57;;;;;;;;;;5048295;28;20812;-70
2021/05/20 05:29:56;;;;;;;4.47;4.17;;;;;;;;;;5044669;28;20956;-69
2021/05/20 05:32:24;;;;;;;4.60;4.30;;;;;;;;;;5051696;28;20547;-70
2021/05/20 05:34:50;;;;;;;3.20;2.90;;;;;;;;;;5051550;28;20459;-69
2021/05/20 05:37:18;;;;;;;3.33;3.03;;;;;;;;;;5032951;28;20456;-70
2021/05/20 05:39:44;;;;;;;5.10;4.60;;;;;;;;;;5038825;28;20452;-67
2021/05/20 05:42:11;;;;;;;4.60;3.40;;;;;;;;;;5036021;28;20456;-70
2021/05/20 05:44:38;;;;;;;5.87;5.40;;;;;;;;;;5032469;28;20572;-67
2021/05/20 05:47:06;;;;;;;4.97;4.60;;;;;;;;;;5032281;28;20483;-70
2021/05/20 05:49:39;;;;;;;4.53;4.10;;;;;;;;;;5032918;28;20452;-68
2021/05/20 05:52:07;;;;;;;4.80;4.40;;;;;;;;;;5037115;28;20447;-68
2021/05/20 05:54:35;;;;;;;4.80;4.40;;;;;;;;;;5036542;28;20476;-67
2021/05/20 05:57:02;;;;;;;4.07;3.77;;;;;;;;;;5040939;28;20448;-68
2021/05/20 05:59:28;;;;;;;5.90;4.43;;;;;;;;;;5037080;28;20895;-68
2021/05/20 06:01:55;;;;;;;3.00;2.70;;;;;;;;;;5032332;28;20448;-70
2021/05/20 06:04:22;;;;;;;4.23;2.70;;;;;;;;;;5031491;28;20496;-67
2021/05/20 06:06:48;;;;;;;4.00;3.70;;;;;;;;;;5031567;28;20495;-70
2021/05/20 06:09:15;;;;;;;7.13;6.43;;;;;;;;;;5031625;28;20449;-67
2021/05/20 06:11:43;;;;;;;6.53;3.20;;;;;;;;;;5032627;28;20535;-69
2021/05/20 06:14:10;;;;;;;3.20;2.67;;;;;;;;;;5030870;28;20808;-66
2021/05/20 06:16:40;;;;;;;6.27;2.43;;;;;;;;;;5026190;28;20463;-69
2021/05/20 06:19:07;;;;;;;3.23;2.90;;;;;;;;;;5017702;28;20459;-67
2021/05/20 06:21:34;;;;;;;4.63;3.20;;;;;;;;;;5031481;28;20447;-69
2021/05/20 06:24:00;;;;;;;3.80;3.50;;;;;;;;;;5032042;28;20567;-69
2021/05/20 06:26:27;;;;;;;2.50;2.20;;;;;;;;;;5031355;28;20476;-68
2021/05/20 06:28:54;;;;;;;3.47;3.10;;;;;;;;;;5031832;28;20539;-69
2021/05/20 06:31:21;;;;;;;5.13;3.70;;;;;;;;;;5052474;28;20466;-68
2021/05/20 06:33:48;;;;;;;3.13;2.50;;;;;;;;;;5023639;28;20456;-69
2021/05/20 06:36:15;;;;;;;3.60;3.30;;;;;;;;;;5012081;28;20474;-69
2021/05/20 06:38:41;;;;;;;4.20;3.80;;;;;;;;;;5029398;28;20457;-69
2021/05/20 06:41:09;;;;;;;3.53;3.20;;;;;;;;;;5031733;28;20459;-69
2021/05/20 06:43:36;;;;;;;2.07;1.77;;;;;;;;;;5031520;28;20552;-68
2021/05/20 06:46:04;;;;;;;4.53;3.70;;;;;;;;;;5046597;28;21308;-69
2021/05/20 06:48:30;;;;;;;4.40;4.00;;;;;;;;;;5030783;28;20833;-68
2021/05/20 06:50:57;;;;;;;3.43;2.50;;;;;;;;;;5030518;28;20448;-69
2021/05/20 06:53:25;;;;;;;2.10;1.87;;;;;;;;;;5030487;28;20461;-68
2021/05/20 06:55:53;;;;;;;4.13;3.80;;;;;;;;;;5029792;28;20487;-69
2021/05/20 07:01:06;;;;;;;3.33;2.70;;;;;;;;;;5030159;28;20516;-69
2021/05/20 07:03:32;;;;;;;3.80;2.80;;;;;;;;;;5030403;28;20456;-69
2021/05/20 07:05:59;;;;;;;2.50;2.23;;;;;;;;;;5035489;28;20853;-69
2021/05/20 07:08:26;;;;;;;2.93;2.60;;;;;;;;;;5028868;28;20586;-69
2021/05/20 07:10:54;;;;;;;3.03;1.80;;;;;;;;;;5023253;28;20955;-68
2021/05/20 07:13:20;;;;;;;2.63;2.37;;;;;;;;;;5030459;28;20448;-69
2021/05/20 07:15:47;;;;;;;3.97;2.70;;;;;;;;;;5029472;28;20568;-69
2021/05/20 07:18:15;;;;;;;2.70;2.23;;;;;;;;;;5030194;28;20457;-69
2021/05/20 07:20:42;;;;;;;1.67;1.50;;;;;;;;;;5034106;28;20482;-69
2021/05/20 07:23:09;;;;;;;3.77;2.57;;;;;;;;;;5034796;28;20463;-67
2021/05/20 07:25:36;;;;;;;2.83;2.27;;;;;;;;;;5038147;28;20492;-69
2021/05/20 07:28:02;;;;;;;2.33;1.70;;;;;;;;;;5034806;28;20452;-68
2021/05/20 07:30:29;;;;;;;4.30;1.70;;;;;;;;;;5033839;28;20456;-69
2021/05/20 07:32:56;;;;;;;3.27;1.73;;;;;;;;;;5034241;28;20982;-69
2021/05/20 07:35:23;;;;;;;3.63;2.10;;;;;;;;;;5033911;28;20464;-69
2021/05/20 07:37:50;;;;;;;4.13;2.50;;;;;;;;;;5035408;28;20448;-69
2021/05/20 07:40:18;;;;;;;3.90;2.13;;;;;;;;;;5035420;28;20455;-67
2021/05/20 07:42:45;;;;;;;2.20;1.97;;;;;;;;;;5035132;28;20450;-67
2021/05/20 07:45:12;;;;;;;2.63;2.43;;;;;;;;;;5040269;28;20996;-69
2021/05/20 07:47:39;;;;;;;4.40;1.60;;;;;;;;;;5035684;28;20889;-68
2021/05/20 07:50:06;;;;;;;2.93;1.70;;;;;;;;;;5034848;28;20472;-68
2021/05/20 07:52:33;;;;;;;3.50;2.00;;;;;;;;;;5036598;28;20471;-69
2021/05/20 07:55:00;;;;;;;3.83;1.97;;;;;;;;;;5033106;28;20571;-68
2021/05/20 07:57:27;;;;;;;4.50;2.40;;;;;;;;;;5032537;28;20468;-69
2021/05/20 07:59:53;;;;;;;2.43;2.23;;;;;;;;;;5034050;28;21124;-68
2021/05/20 08:02:30;;;;;;;3.80;2.07;;;;;;;;;;5029109;28;20551;-69
2021/05/20 08:05:01;;;;;;;1.90;1.60;;;;;;;;;;5038232;28;20491;-67
2021/05/20 08:07:33;;;;;;;1.90;1.30;;;;;;;;;;5032074;28;20526;-68
2021/05/20 08:10:10;;;;;;;2.53;2.33;;;;;;;;;;5034591;28;20510;-67
2021/05/20 08:12:36;;;;;;;3.03;2.03;;;;;;;;;;5048223;28;20451;-67
2021/05/20 08:15:03;;;;;;;5.00;2.53;;;;;;;;;;5046154;28;20514;-66
2021/05/20 08:17:29;;;;;;;3.93;2.10;;;;;;;;;;5034253;28;20455;-68
2021/05/20 08:19:56;;;;;;;4.07;2.07;;;;;;;;;;5029243;28;20848;-67
2021/05/20 08:22:24;;;;;;;1.90;1.50;;;;;;;;;;5032214;28;20472;-67
2021/05/20 08:24:53;;;;;;;1.60;1.50;;;;;;;;;;5034322;28;21055;-68
2021/05/20 08:27:21;;;;;;;2.37;1.33;;;;;;;;;;5034696;28;20464;-67
2021/05/20 08:29:47;;;;;;;4.60;1.47;;;;;;;;;;5028770;28;20981;-66
2021/05/20 08:32:14;;;;;;;1.40;1.27;;;;;;;;;;5014555;28;20445;-67
2021/05/20 08:34:41;;;;;;;4.70;2.17;;;;;;;;;;5017712;28;20509;-67
2021/05/20 08:37:07;;;;;;;1.87;1.47;;;;;;;;;;5034157;28;20545;-67
2021/05/20 08:39:34;;;;;;;2.33;1.70;;;;;;;;;;5033444;28;20545;-68
2021/05/20 08:42:01;;;;;;;2.83;1.73;;;;;;;;;;5035127;28;20456;-67
2021/05/20 08:44:29;;;;;;;4.30;2.03;;;;;;;;;;5035112;28;20484;-67
2021/05/20 08:46:58;;;;;;;2.23;1.67;;;;;;;;;;5014100;28;20461;-67
2021/05/20 08:49:25;;;;;;;2.47;1.60;;;;;;;;;;5013545;28;20458;-67
2021/05/20 08:51:52;;;;;;;2.33;1.70;;;;;;;;;;5031932;28;20456;-66
2021/05/20 08:54:21;;;;;;;4.17;2.00;;;;;;;;;;5032927;28;20460;-67
2021/05/20 08:56:48;;;;;;;2.77;1.20;;;;;;;;;;5031958;28;20500;-67
2021/05/20 08:59:15;;;;;;;3.73;1.87;;;;;;;;;;5032844;28;20471;-69
2021/05/20 09:01:43;;;;;;;3.80;1.93;;;;;;;;;;5032847;28;20476;-67
2021/05/20 09:04:10;;;;;;;2.77;1.57;;;;;;;;;;5032622;28;20448;-67
2021/05/20 09:06:38;;;;;;;4.03;2.40;;;;;;;;;;5033685;28;20498;-67
2021/05/20 09:09:06;;;;;;;2.00;1.70;;;;;;;;;;5032085;28;20504;-66
2021/05/20 09:11:32;;;;;;;1.57;1.47;;;;;;;;;;5033170;28;20457;-67
2021/05/20 09:14:02;;;;;;;2.50;1.90;;;;;;;;;;5033181;28;20462;-68
2021/05/20 09:16:29;;;;;;;3.33;1.57;;;;;;;;;;5033455;28;20461;-66
2021/05/20 09:18:59;;;;;;;2.80;1.73;;;;;;;;;;5033203;28;20456;-68
2021/05/20 09:21:26;;;;;;;3.17;1.80;;;;;;;;;;5033328;28;20445;-68
2021/05/20 09:23:53;;;;;;;3.37;1.27;;;;;;;;;;5051806;28;20448;-68
2021/05/20 09:26:33;;;;;;;6.63;1.70;;;;;;;;;;5041863;28;20496;-67
2021/05/20 09:29:07;;;;;;;2.07;1.40;;;;;;;;;;5033532;28;20448;-68
2021/05/20 09:31:38;;;;;;;18.50;6.73;;;;;;;;;;5037862;28;20462;-68
2021/05/20 09:34:12;;;;;;;14.10;5.20;;;;;;;;;;5034508;28;20907;-68
2021/05/20 09:36:46;;;;;;;4.90;3.10;;;;;;;;;;5032907;28;20506;-68
2021/05/20 09:39:14;;;;;;;19.23;7.50;;;;;;;;;;5033653;28;20453;-67
2021/05/20 09:41:41;;;;;;;8.47;4.23;;;;;;;;;;5032251;28;20455;-67
2021/05/20 09:44:22;;;;;;;14.83;4.30;;;;;;;;;;5033095;28;21087;-68
2021/05/20 09:46:49;;;;;;;10.50;4.20;;;;;;;;;;5032477;28;20448;-67
2021/05/20 09:49:17;;;;;;;10.47;4.50;;;;;;;;;;5032142;28;20449;-68
2021/05/20 09:51:44;;;;;;;9.00;4.23;;;;;;;;;;5031993;28;20460;-67
2021/05/20 09:54:10;;;;;;;7.33;3.57;;;;;;;;;;5032262;28;20969;-69
2021/05/20 09:56:39;;;;;;;8.97;4.10;;;;;;;;;;5032474;28;20446;-68
2021/05/20 09:59:06;;;;;;;6.47;3.63;;;;;;;;;;5031045;28;20445;-68
2021/05/20 10:01:34;;;;;;;7.47;3.40;;;;;;;;;;5031855;28;20970;-70
2021/05/20 10:04:01;;;;;;;2.90;2.40;;;;;;;;;;5031657;28;20449;-69
2021/05/20 10:06:37;;;;;;;8.60;2.87;;;;;;;;;;5033015;28;21007;-64
2021/05/20 10:09:05;;;;;;;7.00;3.50;;;;;;;;;;5046030;28;20736;-65
2021/05/20 10:11:32;;;;;;;2.50;2.27;;;;;;;;;;5030824;28;20467;-65
2021/05/20 10:13:59;;;;;;;3.70;2.63;;;;;;;;;;5049190;28;20452;-68
2021/05/20 10:16:26;;;;;;;2.70;1.97;;;;;;;;;;5051206;28;20563;-66
2021/05/20 10:18:53;;;;;;;7.00;2.90;;;;;;;;;;5030990;28;20453;-67
2021/05/20 10:21:19;;;;;;;6.53;2.67;;;;;;;;;;5031090;28;20456;-64
2021/05/20 10:23:47;;;;;;;5.07;2.57;;;;;;;;;;5031556;28;20463;-64
2021/05/20 10:26:14;;;;;;;5.47;2.63;;;;;;;;;;5030135;28;20492;-64
2021/05/20 10:28:43;;;;;;;5.80;3.17;;;;;;;;;;5045755;28;20472;-66
2021/05/20 10:31:09;;;;;;;7.47;2.63;;;;;;;;;;5050948;28;20447;-66
2021/05/20 10:33:36;;;;;;;6.40;3.20;;;;;;;;;;5051069;28;20504;-66
2021/05/20 10:36:03;;;;;;;5.93;2.00;;;;;;;;;;5050507;28;20615;-66
2021/05/20 10:38:37;;;;;;;6.10;2.10;;;;;;;;;;5051026;28;20444;-65
2021/05/20 10:41:08;;;;;;;3.60;2.03;;;;;;;;;;5051086;28;20463;-65
2021/05/20 10:43:35;;;;;;;4.30;2.37;;;;;;;;;;5042799;28;20455;-65
2021/05/20 10:46:02;;;;;;;3.83;1.90;;;;;;;;;;5050659;28;20492;-66
2021/05/20 10:48:29;;;;;;;3.60;2.23;;;;;;;;;;5051083;28;20462;-65
2021/05/20 10:50:57;;;;;;;3.40;2.00;;;;;;;;;;5050261;28;20522;-66
2021/05/20 10:53:45;;;;;;;2.83;2.23;;;;;;;;;;5050763;28;20513;-65
2021/05/20 10:56:42;;;;;;;2.43;1.50;;;;;;;;;;5050715;28;20476;-66
2021/05/20 10:59:32;;;;;;;3.90;2.07;;;;;;;;;;5010554;28;20453;-65
2021/05/20 11:01:59;;;;;;;2.13;1.80;;;;;;;;;;5011232;28;20480;-65
2021/05/20 11:04:32;;;;;;;2.10;1.60;;;;;;;;;;5012352;28;20485;-65
2021/05/20 11:06:59;;;;;;;3.17;1.93;;;;;;;;;;5030090;28;20498;-65
2021/05/20 11:09:41;;;;;;;2.37;1.27;;;;;;;;;;5032538;28;20452;-67
2021/05/20 11:12:09;;;;;;;2.63;1.70;;;;;;;;;;5021786;28;21025;-67
2021/05/20 11:14:42;;;;;;;2.57;1.63;;;;;;;;;;5030315;28;20999;-66
2021/05/20 11:17:27;;;;;;;3.77;1.97;;;;;;;;;;5029985;28;20461;-66
2021/05/20 11:20:09;;;;;;;2.23;2.03;;;;;;;;;;5031354;28;20471;-64
2021/05/20 11:22:35;;;;;;;2.90;2.13;;;;;;;;;;5031089;28;20463;-65
2021/05/20 11:25:10;;;;;;;3.93;2.80;;;;;;;;;;5030865;28;20870;-65
2021/05/20 11:27:37;;;;;;;3.97;2.30;;;;;;;;;;5024521;28;20456;-67
2021/05/20 11:30:04;;;;;;;2.77;2.37;;;;;;;;;;5031520;28;20448;-65
2021/05/20 11:32:32;;;;;;;3.13;2.50;;;;;;;;;;5051651;23;20496;-62
2021/05/20 11:35:18;;;;;;;3.90;3.50;;;;;;;;;;5022345;28;20453;-64
2021/05/20 11:37:45;;;;;;;2.47;2.27;;;;;;;;;;5019905;28;20441;-61
2021/05/20 11:40:25;;;;;;;5.27;2.73;;;;;;;;;;5016634;28;20495;-60
2021/05/20 11:42:53;;;;;;;2.73;2.17;;;;;;;;;;5031381;28;20533;-61
2021/05/20 11:45:23;;;;;;;2.63;2.37;;;;;;;;;;5013193;28;20544;-61
2021/05/20 11:47:53;;;;;;;2.30;1.97;;;;;;;;;;5011781;28;20948;-61
2021/05/20 11:50:21;;;;;;;2.70;2.30;;;;;;;;;;5011547;28;20454;-61
2021/05/20 11:52:47;;;;;;;2.20;2.00;;;;;;;;;;5004883;28;20571;-61
2021/05/20 11:55:14;;;;;;;6.00;5.50;;;;;;;;;;5009076;28;20523;-61
2021/05/20 11:57:40;;;;;;;5.87;5.47;;;;;;;;;;5010843;28;20454;-61
2021/05/20 12:00:09;;;;;;;6.63;6.13;;;;;;;;;;5003236;28;20977;-62
2021/05/20 12:02:37;;;;;;;5.80;5.40;;;;;;;;;;5010196;28;20473;-60
2021/05/20 12:05:04;;;;;;;5.67;5.27;;;;;;;;;;5012889;28;20866;-62
2021/05/20 12:07:32;;;;;;;5.50;5.10;;;;;;;;;;5014644;28;20461;-61
2021/05/20 12:10:08;;;;;;;6.03;5.37;;;;;;;;;;5014818;28;20456;-60
2021/05/20 12:12:35;;;;;;;5.77;5.37;;;;;;;;;;5017619;28;20966;-60
2021/05/20 12:15:10;;;;;;;6.40;5.90;;;;;;;;;;5035087;28;20445;-61
2021/05/20 12:17:37;;;;;;;6.13;5.63;;;;;;;;;;5022993;28;20870;-61
2021/05/20 12:20:04;;;;;;;5.40;4.90;;;;;;;;;;5014377;28;20998;-61
2021/05/20 12:22:31;;;;;;;5.03;4.63;;;;;;;;;;5014696;28;20473;-60
2021/05/20 12:24:59;;;;;;;4.43;4.10;;;;;;;;;;5010415;28;20544;-61
2021/05/20 12:27:26;;;;;;;5.90;5.10;;;;;;;;;;5014713;28;20465;-61
2021/05/20 12:29:54;;;;;;;6.40;5.80;;;;;;;;;;5015210;28;20518;-66
2021/05/20 12:32:38;;;;;;;6.20;5.70;;;;;;;;;;5009286;28;20481;-60
2021/05/20 12:35:10;;;;;;;9.77;3.23;;;;;;;;;;5014577;28;20536;-62
2021/05/20 12:37:40;;;;;;;3.80;3.50;;;;;;;;;;5013116;28;20453;-60
2021/05/20 12:40:09;;;;;;;3.40;3.20;;;;;;;;;;5012610;28;20515;-61
2021/05/20 12:42:36;;;;;;;4.90;4.47;;;;;;;;;;5013537;28;20472;-63
2021/05/20 12:45:03;;;;;;;4.93;4.57;;;;;;;;;;5016536;28;20477;-61
2021/05/20 12:47:30;;;;;;;6.03;5.53;;;;;;;;;;5014062;28;20848;-64
2021/05/20 12:49:57;;;;;;;6.10;5.70;;;;;;;;;;5013040;28;20450;-62
2021/05/20 12:52:24;;;;;;;6.73;6.23;;;;;;;;;;5013508;28;20476;-62
2021/05/20 12:54:51;;;;;;;9.67;7.30;;;;;;;;;;5009923;28;20442;-61
2021/05/20 12:57:17;;;;;;;7.93;7.20;;;;;;;;;;5012715;28;20558;-61
2021/05/20 12:59:44;;;;;;;11.33;7.20;;;;;;;;;;5013318;28;20450;-62
2021/05/20 13:02:12;;;;;;;9.57;7.53;;;;;;;;;;5011975;28;20445;-63
2021/05/20 13:04:40;;;;;;;8.37;6.67;;;;;;;;;;5011641;28;20478;-64
2021/05/20 13:07:07;;;;;;;11.13;6.80;;;;;;;;;;5002014;28;20453;-64
2021/05/20 13:09:35;;;;;;;7.13;6.33;;;;;;;;;;5013004;28;20462;-62
2021/05/20 13:12:04;;;;;;;6.80;6.23;;;;;;;;;;5011720;28;20814;-61
2021/05/20 13:14:35;;;;;;;10.73;7.00;;;;;;;;;;5013501;28;20457;-61
2021/05/20 13:17:18;;;;;;;6.60;6.10;;;;;;;;;;5012296;28;20452;-62
2021/05/20 13:20:09;;;;;;;7.10;6.50;;;;;;;;;;5011881;28;20461;-63
2021/05/20 13:22:40;;;;;;;6.90;6.30;;;;;;;;;;5010989;28;20481;-63
2021/05/20 13:25:08;;;;;;;8.67;7.70;;;;;;;;;;5012246;28;20576;-62
2021/05/20 13:27:36;;;;;;;12.87;8.30;;;;;;;;;;5011966;28;20974;-64
2021/05/20 13:30:06;;;;;;;8.40;7.23;;;;;;;;;;5013503;28;20454;-62
2021/05/20 13:32:36;;;;;;;14.73;7.53;;;;;;;;;;5011945;28;20992;-62
2021/05/20 13:35:03;;;;;;;6.83;6.33;;;;;;;;;;5012133;28;20934;-62
2021/05/20 13:37:30;;;;;;;6.67;6.17;;;;;;;;;;5013045;28;21015;-63
2021/05/20 13:39:58;;;;;;;5.93;5.37;;;;;;;;;;5012413;28;20461;-61
2021/05/20 13:42:25;;;;;;;6.40;5.80;;;;;;;;;;5012605;28;20564;-62
2021/05/20 13:44:54;;;;;;;7.20;4.93;;;;;;;;;;5011940;28;20858;-59
2021/05/20 13:47:21;;;;;;;4.90;4.30;;;;;;;;;;5013016;28;20453;-62
2021/05/20 13:49:48;;;;;;;4.10;3.70;;;;;;;;;;5012130;28;20454;-59
2021/05/20 13:52:16;;;;;;;10.30;4.07;;;;;;;;;;5012372;28;20462;-62
2021/05/20 13:54:43;;;;;;;5.97;3.50;;;;;;;;;;5012658;28;20457;-60
2021/05/20 13:57:10;;;;;;;3.40;2.93;;;;;;;;;;4999713;28;20465;-63
2021/05/20 13:59:39;;;;;;;3.70;3.10;;;;;;;;;;5005943;28;20842;-60
2021/05/20 14:02:08;;;;;;;4.47;3.57;;;;;;;;;;5012637;28;20957;-61
2021/05/20 14:04:37;;;;;;;4.93;3.20;;;;;;;;;;5011492;28;20453;-60
2021/05/20 14:07:03;;;;;;;3.90;2.90;;;;;;;;;;5012122;28;20544;-60
2021/05/20 14:09:30;;;;;;;4.30;3.20;;;;;;;;;;5007085;28;20877;-63
2021/05/20 14:11:57;;;;;;;4.13;3.83;;;;;;;;;;5012571;28;20454;-60
2021/05/20 14:14:23;;;;;;;3.90;3.50;;;;;;;;;;5018217;28;20495;-61
2021/05/20 14:16:51;;;;;;;3.70;3.40;;;;;;;;;;5006589;28;20445;-60
2021/05/20 14:19:17;;;;;;;3.73;3.43;;;;;;;;;;5011757;28;20475;-60
2021/05/20 14:21:44;;;;;;;3.80;3.50;;;;;;;;;;5012110;28;20609;-60
2021/05/20 14:24:11;;;;;;;3.20;3.00;;;;;;;;;;5009009;28;20805;-61
2021/05/20 14:26:38;;;;;;;3.43;3.13;;;;;;;;;;5010241;28;20485;-60
2021/05/20 14:29:05;;;;;;;3.90;3.10;;;;;;;;;;5010891;28;20450;-63
2021/05/20 14:31:31;;;;;;;3.70;3.20;;;;;;;;;;5016435;28;20444;-61
2021/05/20 14:33:59;;;;;;;2.90;2.70;;;;;;;;;;5013615;28;20491;-61
2021/05/20 14:36:25;;;;;;;4.00;3.57;;;;;;;;;;5012575;28;20452;-61
2021/05/20 14:38:52;;;;;;;3.70;3.30;;;;;;;;;;5007407;28;20976;-61
2021/05/20 14:41:18;;;;;;;4.20;3.23;;;;;;;;;;5007681;28;20470;-61
2021/05/20 14:43:45;;;;;;;5.70;3.90;;;;;;;;;;5005885;28;21339;-63
2021/05/20 14:46:12;;;;;;;3.70;3.40;;;;;;;;;;5010305;28;20482;-61